Time;durP1;ratioP1;P1;durP2;ratioP2;P2;SDS_P1;SDS_P2;PMS_P1;PMS_P2;Temp;Humidity;BMP_temperature;BMP_pressure;BME280_temperature;BME280_humidity;BME280_pressure;Samples;Min_cycle;Max_cycle;Signal;HPM_P1;HPM_P2
2023/07/27 00:01:04;;;;;;;;;;;25.60;99.90;;;;;;5132844;27;19903;-74
2023/07/27 00:03:29;;;;;;;;;;;25.70;99.90;;;;;;5132547;27;20270;-74
2023/07/27 00:05:55;;;;;;;;;;;25.80;99.90;;;;;;5134045;27;19907;-74
2023/07/27 00:08:21;;;;;;;;;;;25.80;99.90;;;;;;5134416;27;19915;-74
2023/07/27 00:10:47;;;;;;;;;;;25.70;99.90;;;;;;5133963;27;20032;-74
2023/07/27 00:13:13;;;;;;;;;;;25.70;99.90;;;;;;5134109;27;19904;-74
2023/07/27 00:15:38;;;;;;;;;;;25.70;99.90;;;;;;5133930;27;19910;-73
2023/07/27 00:18:04;;;;;;;;;;;25.60;99.90;;;;;;5134079;27;19903;-73
2023/07/27 00:20:30;;;;;;;;;;;25.70;99.90;;;;;;5133708;27;19927;-74
2023/07/27 00:22:56;;;;;;;;;;;25.70;99.90;;;;;;5133837;27;19903;-73
2023/07/27 00:25:22;;;;;;;;;;;25.70;99.90;;;;;;5134066;27;19904;-75
2023/07/27 00:27:48;;;;;;;;;;;25.70;99.90;;;;;;5133851;28;20001;-74
2023/07/27 00:30:13;;;;;;;;;;;25.60;99.90;;;;;;5134304;28;20371;-74
2023/07/27 00:32:39;;;;;;;;;;;25.50;99.90;;;;;;5133586;27;20002;-74
2023/07/27 00:35:06;;;;;;;;;;;25.50;99.90;;;;;;5137462;27;19965;-74
2023/07/27 00:37:31;;;;;;;;;;;25.50;99.90;;;;;;5138266;27;19903;-74
2023/07/27 00:39:57;;;;;;;;;;;25.50;99.90;;;;;;5136516;27;19907;-74
2023/07/27 00:42:23;;;;;;;;;;;25.60;99.90;;;;;;5137853;27;19903;-74
2023/07/27 00:44:49;;;;;;;;;;;25.70;99.90;;;;;;5136419;27;19907;-74
2023/07/27 00:47:15;;;;;;;;;;;25.70;99.90;;;;;;5138224;27;20018;-74
2023/07/27 00:49:41;;;;;;;;;;;25.60;99.90;;;;;;5136411;27;19903;-74
2023/07/27 00:52:08;;;;;;;;;;;25.50;99.90;;;;;;5137920;27;19928;-73
2023/07/27 00:54:34;;;;;;;;;;;25.60;99.90;;;;;;5137955;27;20364;-75
2023/07/27 00:57:00;;;;;;;;;;;25.70;99.90;;;;;;5137859;27;20340;-74
2023/07/27 00:59:27;;;;;;;;;;;25.60;99.90;;;;;;5137981;27;19907;-74
2023/07/27 01:01:53;;;;;;;;;;;25.50;99.90;;;;;;5137703;27;19904;-75
2023/07/27 01:04:19;;;;;;;;;;;25.50;99.90;;;;;;5137223;27;19903;-74
2023/07/27 01:06:45;;;;;;;;;;;25.50;99.90;;;;;;5137275;27;19956;-74
2023/07/27 01:09:11;;;;;;;;;;;25.50;99.90;;;;;;5137295;27;19903;-75
2023/07/27 01:11:49;;;;;;;;;;;25.30;99.90;;;;;;5137370;27;19907;-74
2023/07/27 01:14:18;;;;;;;;;;;25.30;99.90;;;;;;5137204;27;19907;-73
2023/07/27 01:16:47;;;;;;;;;;;25.40;99.90;;;;;;5137189;27;19904;-73
2023/07/27 01:19:12;;;;;;;;;;;25.20;99.90;;;;;;5135601;27;20290;-73
2023/07/27 01:21:45;;;;;;;;;;;25.30;99.90;;;;;;5137447;27;19903;-73
2023/07/27 01:24:17;;;;;;;;;;;25.20;99.90;;;;;;5135784;27;19911;-74
2023/07/27 01:26:55;;;;;;;;;;;25.20;99.90;;;;;;5136952;27;19911;-73
2023/07/27 01:29:40;;;;;;;;;;;25.10;99.90;;;;;;5137082;27;19903;-73
2023/07/27 01:32:07;;;;;;;;;;;25.20;99.90;;;;;;5135569;27;19909;-73
2023/07/27 01:34:34;;;;;;;;;;;25.20;99.90;;;;;;5136517;27;20345;-74
2023/07/27 01:37:05;;;;;;;;;;;25.20;99.90;;;;;;5136834;27;19994;-73
2023/07/27 01:39:42;;;;;;;;;;;25.30;99.90;;;;;;5136989;27;19911;-74
2023/07/27 01:42:11;;;;;;;;;;;25.40;99.90;;;;;;5136795;27;19956;-73
2023/07/27 01:44:37;;;;;;;;;;;25.30;99.90;;;;;;5134697;27;19904;-74
2023/07/27 01:47:04;;;;;;;;;;;25.30;99.90;;;;;;5137008;27;20267;-74
2023/07/27 01:49:31;;;;;;;;;;;25.20;99.90;;;;;;5136558;27;20370;-73
2023/07/27 01:51:57;;;;;;;;;;;25.10;99.90;;;;;;5136456;27;20295;-73
2023/07/27 01:54:23;;;;;;;;;;;25.00;99.90;;;;;;5136514;27;19903;-74
2023/07/27 01:56:50;;;;;;;;;;;25.10;99.90;;;;;;5136499;27;19972;-74
2023/07/27 01:59:17;;;;;;;;;;;25.10;99.90;;;;;;5136299;27;19958;-74
2023/07/27 02:01:43;;;;;;;;;;;25.10;99.90;;;;;;5136896;27;19904;-73
2023/07/27 02:04:09;;;;;;;;;;;25.10;99.90;;;;;;5136195;27;19907;-74
2023/07/27 02:06:35;;;;;;;;;;;25.10;99.90;;;;;;5136192;27;20267;-74
2023/07/27 02:09:00;;;;;;;;;;;25.20;99.90;;;;;;5136251;27;20006;-74
2023/07/27 02:11:26;;;;;;;;;;;25.20;99.90;;;;;;5136913;27;20256;-74
2023/07/27 02:13:55;;;;;;;;;;;25.20;99.90;;;;;;5136215;27;20319;-74
2023/07/27 02:16:32;;;;;;;;;;;25.00;99.90;;;;;;5134780;27;19994;-74
2023/07/27 02:18:58;;;;;;;;;;;25.00;99.90;;;;;;5136692;27;19912;-74
2023/07/27 02:21:25;;;;;;;;;;;24.90;99.90;;;;;;5136697;27;19907;-73
2023/07/27 02:23:52;;;;;;;;;;;24.80;99.90;;;;;;5137793;27;20324;-74
2023/07/27 02:26:18;;;;;;;;;;;24.80;99.90;;;;;;5136125;27;19914;-74
2023/07/27 02:28:44;;;;;;;;;;;24.80;99.90;;;;;;5136090;27;19907;-74
2023/07/27 02:31:10;;;;;;;;;;;24.80;99.90;;;;;;5135804;27;19903;-74
2023/07/27 02:33:35;;;;;;;;;;;24.80;99.90;;;;;;5135569;27;19919;-76
2023/07/27 02:36:01;;;;;;;;;;;24.80;99.90;;;;;;5135571;27;20009;-73
2023/07/27 02:38:27;;;;;;;;;;;24.70;99.90;;;;;;5135605;27;19934;-74
2023/07/27 02:40:53;;;;;;;;;;;24.70;99.90;;;;;;5135833;27;19911;-74
2023/07/27 02:43:19;;;;;;;;;;;24.70;99.90;;;;;;5134344;27;19910;-74
2023/07/27 02:45:44;;;;;;;;;;;24.80;99.90;;;;;;5134003;27;20355;-74
2023/07/27 02:48:10;;;;;;;;;;;24.70;99.90;;;;;;5135444;27;19910;-74
2023/07/27 02:50:36;;;;;;;;;;;24.70;99.90;;;;;;5135271;27;19954;-74
2023/07/27 02:53:02;;;;;;;;;;;24.70;99.90;;;;;;5135352;27;20355;-74
2023/07/27 02:55:28;;;;;;;;;;;24.40;99.90;;;;;;5135020;27;19907;-73
2023/07/27 02:57:53;;;;;;;;;;;24.20;99.90;;;;;;5134842;27;20002;-73
2023/07/27 03:00:19;;;;;;;;;;;24.20;99.90;;;;;;5135109;27;19903;-73
2023/07/27 03:02:45;;;;;;;;;;;24.30;99.90;;;;;;5135587;27;19903;-74
2023/07/27 03:05:11;;;;;;;;;;;24.30;99.90;;;;;;5135040;27;19903;-73
2023/07/27 03:07:37;;;;;;;;;;;24.40;99.90;;;;;;5134876;27;19960;-73
2023/07/27 03:10:03;;;;;;;;;;;24.50;99.90;;;;;;5134949;27;19946;-74
2023/07/27 03:12:28;;;;;;;;;;;24.50;99.90;;;;;;5135137;27;19939;-73
2023/07/27 03:14:54;;;;;;;;;;;24.50;99.90;;;;;;5134894;27;19903;-73
2023/07/27 03:17:20;;;;;;;;;;;24.50;99.90;;;;;;5134786;27;19911;-73
2023/07/27 03:19:46;;;;;;;;;;;24.60;99.90;;;;;;5133654;27;20002;-74
2023/07/27 03:22:12;;;;;;;;;;;24.70;99.90;;;;;;5134688;27;19903;-74
2023/07/27 03:24:37;;;;;;;;;;;24.80;99.90;;;;;;5134771;27;19914;-74
2023/07/27 03:27:03;;;;;;;;;;;24.80;99.90;;;;;;5134677;27;19912;-74
2023/07/27 03:29:29;;;;;;;;;;;24.90;99.90;;;;;;5134634;27;19908;-74
2023/07/27 03:31:55;;;;;;;;;;;24.80;99.90;;;;;;5134556;27;19903;-73
2023/07/27 03:34:21;;;;;;;;;;;24.60;99.90;;;;;;5132736;27;19994;-73
2023/07/27 03:36:47;;;;;;;;;;;24.60;99.90;;;;;;5134523;27;20040;-74
2023/07/27 03:39:13;;;;;;;;;;;24.40;99.90;;;;;;5134707;27;19903;-73
2023/07/27 03:41:38;;;;;;;;;;;24.40;99.90;;;;;;5134590;27;19911;-74
2023/07/27 03:44:04;;;;;;;;;;;24.40;99.90;;;;;;5134548;27;20002;-73
2023/07/27 03:46:30;;;;;;;;;;;24.10;99.90;;;;;;5134262;27;20052;-74
2023/07/27 03:48:56;;;;;;;;;;;24.10;99.90;;;;;;5132708;27;20275;-73
2023/07/27 03:51:22;;;;;;;;;;;24.10;99.90;;;;;;5134178;27;19904;-74
2023/07/27 03:53:48;;;;;;;;;;;24.20;99.90;;;;;;5135029;27;19937;-73
2023/07/27 03:56:13;;;;;;;;;;;24.40;99.90;;;;;;5134656;27;19910;-73
2023/07/27 03:58:39;;;;;;;;;;;24.10;99.90;;;;;;5134160;27;19903;-73
2023/07/27 04:01:06;;;;;;;;;;;23.90;99.90;;;;;;5132710;27;20347;-74
2023/07/27 04:03:32;;;;;;;;;;;23.80;99.90;;;;;;5134083;27;19904;-74
2023/07/27 04:05:58;;;;;;;;;;;23.70;99.90;;;;;;5133834;27;19918;-74
2023/07/27 04:08:24;;;;;;;;;;;23.60;99.90;;;;;;5134153;27;20312;-74
2023/07/27 04:10:49;;;;;;;;;;;23.50;99.90;;;;;;5133929;27;19964;-74
2023/07/27 04:13:15;;;;;;;;;;;23.60;99.90;;;;;;5134195;27;20002;-73
2023/07/27 04:15:42;;;;;;;;;;;23.60;99.90;;;;;;5134460;27;19904;-74
2023/07/27 04:18:08;;;;;;;;;;;23.60;99.90;;;;;;5133764;27;19907;-74
2023/07/27 04:20:34;;;;;;;;;;;23.60;99.90;;;;;;5133715;27;20317;-74
2023/07/27 04:22:59;;;;;;;;;;;23.70;99.90;;;;;;5133679;28;20224;-74
2023/07/27 04:25:25;;;;;;;;;;;23.70;99.90;;;;;;5133935;28;20026;-74
2023/07/27 04:27:51;;;;;;;;;;;23.70;99.90;;;;;;5132082;28;19961;-74
2023/07/27 04:30:18;;;;;;;;;;;23.90;99.90;;;;;;5133545;27;19914;-74
2023/07/27 04:32:43;;;;;;;;;;;24.00;99.90;;;;;;5133253;27;19957;-73
2023/07/27 04:35:09;;;;;;;;;;;24.20;99.90;;;;;;5133596;27;19951;-76
2023/07/27 04:37:35;;;;;;;;;;;24.20;99.90;;;;;;5133573;28;19923;-74
2023/07/27 04:40:01;;;;;;;;;;;24.30;99.90;;;;;;5133415;28;19904;-74
2023/07/27 04:42:27;;;;;;;;;;;24.50;99.90;;;;;;5133779;28;20321;-74
2023/07/27 04:44:52;;;;;;;;;;;24.40;99.90;;;;;;5133254;28;20355;-74
2023/07/27 04:47:18;;;;;;;;;;;24.30;99.90;;;;;;5131866;28;19946;-74
2023/07/27 04:49:45;;;;;;;;;;;24.30;99.90;;;;;;5131752;28;19904;-74
2023/07/27 04:52:11;;;;;;;;;;;24.40;99.90;;;;;;5131937;28;19904;-74
2023/07/27 04:54:37;;;;;;;;;;;24.50;99.90;;;;;;5133547;28;20357;-74
2023/07/27 04:57:02;;;;;;;;;;;24.70;99.90;;;;;;5133458;28;19911;-74
2023/07/27 04:59:28;;;;;;;;;;;24.80;99.90;;;;;;5133446;27;19904;-74
2023/07/27 05:01:54;;;;;;;;;;;24.90;99.90;;;;;;5133434;28;19903;-76
2023/07/27 05:04:20;;;;;;;;;;;24.80;99.90;;;;;;5133017;28;19903;-74
2023/07/27 05:06:46;;;;;;;;;;;25.00;99.90;;;;;;5133538;28;19995;-75
2023/07/27 05:09:11;;;;;;;;;;;25.00;99.90;;;;;;5133129;27;19911;-74
2023/07/27 05:11:37;;;;;;;;;;;24.80;99.90;;;;;;5132758;28;20390;-75
2023/07/27 05:14:03;;;;;;;;;;;24.70;99.90;;;;;;5131387;28;19915;-75
2023/07/27 05:16:30;;;;;;;;;;;25.20;99.90;;;;;;5133118;27;19903;-75
2023/07/27 05:18:57;;;;;;;;;;;26.10;99.90;;;;;;5131615;27;19904;-75
2023/07/27 05:21:23;;;;;;;;;;;26.20;99.90;;;;;;5136671;27;19903;-75
2023/07/27 05:23:49;;;;;;;;;;;26.60;99.90;;;;;;5137030;27;20370;-75
2023/07/27 05:26:15;;;;;;;;;;;27.10;99.90;;;;;;5137302;27;20378;-75
2023/07/27 05:28:41;;;;;;;;;;;27.70;99.90;;;;;;5135416;27;19907;-75
2023/07/27 05:31:07;;;;;;;;;;;28.90;99.90;;;;;;5136989;27;19964;-74
2023/07/27 05:33:33;;;;;;;;;;;30.30;99.90;;;;;;5136617;27;19934;-75
2023/07/27 05:35:58;;;;;;;;;;;30.70;99.90;;;;;;5136482;27;20265;-75
2023/07/27 05:38:24;;;;;;;;;;;32.30;99.90;;;;;;5136880;27;19925;-75
2023/07/27 05:40:50;;;;;;;;;;;33.40;99.90;;;;;;5136425;27;20314;-75
2023/07/27 05:43:16;;;;;;;;;;;34.10;99.90;;;;;;5135350;27;19914;-75
2023/07/27 05:45:42;;;;;;;;;;;34.20;99.90;;;;;;5136710;27;19903;-75
2023/07/27 05:48:08;;;;;;;;;;;35.60;99.90;;;;;;5136673;27;19907;-74
2023/07/27 05:50:34;;;;;;;;;;;35.20;99.90;;;;;;5134841;27;19914;-75
2023/07/27 05:53:00;;;;;;;;;;;34.90;99.90;;;;;;5136250;27;19910;-75
2023/07/27 05:55:25;;;;;;;;;;;34.90;99.90;;;;;;5136271;27;20278;-75
2023/07/27 05:57:51;;;;;;;;;;;35.40;99.90;;;;;;5136731;27;19903;-75
2023/07/27 06:00:17;;;;;;;;;;;36.10;99.90;;;;;;5136290;27;20054;-76
2023/07/27 06:02:43;;;;;;;;;;;37.60;99.70;;;;;;5136427;27;19910;-75
2023/07/27 06:05:09;;;;;;;;;;;38.90;97.50;;;;;;5135677;27;19910;-75
2023/07/27 06:07:35;;;;;;;;;;;39.70;96.00;;;;;;5136253;27;19923;-75
2023/07/27 06:10:01;;;;;;;;;;;38.20;95.90;;;;;;5134637;27;19908;-75
2023/07/27 06:12:26;;;;;;;;;;;38.30;95.70;;;;;;5136585;27;19903;-74
2023/07/27 06:14:52;;;;;;;;;;;37.60;95.90;;;;;;5136035;27;19903;-75
2023/07/27 06:17:18;;;;;;;;;;;36.90;96.40;;;;;;5135809;27;19961;-75
2023/07/27 06:19:44;;;;;;;;;;;38.70;95.70;;;;;;5136030;27;20355;-75
2023/07/27 06:22:10;;;;;;;;;;;38.70;94.60;;;;;;5135610;27;19914;-75
2023/07/27 06:24:35;;;;;;;;;;;38.70;94.60;;;;;;5136250;27;19929;-75
2023/07/27 06:27:01;;;;;;;;;;;40.20;93.70;;;;;;5135891;27;19911;-76
2023/07/27 06:29:27;;;;;;;;;;;40.70;92.60;;;;;;5136158;27;20271;-75
2023/07/27 06:31:53;;;;;;;;;;;40.50;91.80;;;;;;5135758;27;19987;-76
2023/07/27 06:34:19;;;;;;;;;;;39.20;91.90;;;;;;5133838;27;20389;-75
2023/07/27 06:36:44;;;;;;;;;;;38.10;93.10;;;;;;5135495;27;19911;-75
2023/07/27 06:39:10;;;;;;;;;;;37.40;93.90;;;;;;5135863;27;19903;-75
2023/07/27 06:41:36;;;;;;;;;;;37.30;93.90;;;;;;5135533;27;19910;-75
2023/07/27 06:44:02;;;;;;;;;;;37.20;94.30;;;;;;5135425;27;19949;-76
2023/07/27 06:46:28;;;;;;;;;;;37.70;93.60;;;;;;5135253;27;20007;-76
2023/07/27 06:48:53;;;;;;;;;;;38.50;93.60;;;;;;5135295;27;19963;-75
2023/07/27 06:51:19;;;;;;;;;;;39.00;92.40;;;;;;5133625;27;19903;-75
2023/07/27 06:53:45;;;;;;;;;;;39.20;91.80;;;;;;5135158;27;19998;-75
2023/07/27 06:56:11;;;;;;;;;;;39.90;91.60;;;;;;5135476;27;19954;-75
2023/07/27 06:58:37;;;;;;;;;;;41.00;90.70;;;;;;5134916;27;19911;-76
2023/07/27 07:01:03;;;;;;;;;;;40.10;89.70;;;;;;5134831;27;19911;-75
2023/07/27 07:03:29;;;;;;;;;;;40.50;89.80;;;;;;5135029;27;20361;-75
2023/07/27 07:05:55;;;;;;;;;;;39.80;89.90;;;;;;5134634;27;19998;-75
2023/07/27 07:08:20;;;;;;;;;;;40.30;90.30;;;;;;5134662;27;19930;-75
2023/07/27 07:10:46;;;;;;;;;;;40.60;89.30;;;;;;5134840;27;19995;-75
2023/07/27 07:13:12;;;;;;;;;;;40.60;88.60;;;;;;5134743;27;19910;-75
2023/07/27 07:15:38;;;;;;;;;;;40.50;88.00;;;;;;5133009;27;19908;-75
2023/07/27 07:18:10;;;;;;;;;;;39.40;89.30;;;;;;5134422;27;19903;-76
2023/07/27 07:20:36;;;;;;;;;;;39.00;90.00;;;;;;5132916;27;20362;-75
2023/07/27 07:23:01;;;;;;;;;;;38.30;90.30;;;;;;5134292;27;19904;-75
2023/07/27 07:25:27;;;;;;;;;;;38.20;90.90;;;;;;5132937;27;19911;-75
2023/07/27 07:27:53;;;;;;;;;;;37.00;91.60;;;;;;5134389;27;20228;-75
2023/07/27 07:30:19;;;;;;;;;;;36.00;92.80;;;;;;5132962;27;20002;-75
2023/07/27 07:32:45;;;;;;;;;;;36.10;92.90;;;;;;5134045;27;19907;-73
2023/07/27 07:35:11;;;;;;;;;;;35.40;93.50;;;;;;5134168;27;19911;-75
2023/07/27 07:37:36;;;;;;;;;;;35.40;93.50;;;;;;5134600;27;19903;-74
2023/07/27 07:40:02;;;;;;;;;;;34.80;93.90;;;;;;5134268;27;20423;-75
2023/07/27 07:42:30;;;;;;;;;;;34.70;93.90;;;;;;5133097;27;19920;-75
2023/07/27 07:44:55;;;;;;;;;;;35.40;93.90;;;;;;5134160;27;20262;-73
2023/07/27 07:47:21;;;;;;;;;;;35.70;93.70;;;;;;5133898;27;19934;-73
2023/07/27 07:49:48;;;;;;;;;;;35.50;93.50;;;;;;5133538;27;19939;-74
2023/07/27 07:52:14;;;;;;;;;;;34.50;94.30;;;;;;5133763;27;19907;-74
2023/07/27 07:54:39;;;;;;;;;;;34.20;94.70;;;;;;5134283;27;19903;-73
2023/07/27 07:57:05;;;;;;;;;;;34.00;94.80;;;;;;5133625;27;19910;-74
2023/07/27 07:59:31;;;;;;;;;;;34.80;95.90;;;;;;5133745;27;19923;-74
2023/07/27 08:01:57;;;;;;;;;;;34.80;96.10;;;;;;5133669;27;19967;-75
2023/07/27 08:04:22;;;;;;;;;;;34.50;95.70;;;;;;5133467;27;19904;-75
2023/07/27 08:06:48;;;;;;;;;;;35.10;96.00;;;;;;5133943;27;19915;-75
2023/07/27 08:09:14;;;;;;;;;;;35.30;95.60;;;;;;5133575;27;19903;-75
2023/07/27 08:11:42;;;;;;;;;;;35.10;95.90;;;;;;5133938;27;19903;-75
2023/07/27 08:14:08;;;;;;;;;;;35.60;95.70;;;;;;5133818;27;19907;-75
2023/07/27 08:16:34;;;;;;;;;;;35.90;95.30;;;;;;5132245;27;19903;-75
2023/07/27 08:19:00;;;;;;;;;;;35.80;95.20;;;;;;5133656;27;19911;-75
2023/07/27 08:21:28;;;;;;;;;;;36.10;94.90;;;;;;5133375;27;19979;-75
2023/07/27 08:23:54;;;;;;;;;;;35.90;94.90;;;;;;5133856;27;19903;-75
2023/07/27 08:26:20;;;;;;;;;;;35.90;95.00;;;;;;5132429;28;20247;-74
2023/07/27 08:28:47;;;;;;;;;;;36.10;95.00;;;;;;5133702;27;19903;-75
2023/07/27 08:31:13;;;;;;;;;;;35.40;95.30;;;;;;5133432;27;20352;-75
2023/07/27 08:33:39;;;;;;;;;;;35.70;95.30;;;;;;5133377;27;19994;-75
2023/07/27 08:36:05;;;;;;;;;;;35.60;95.30;;;;;;5132107;28;19946;-75
2023/07/27 08:38:31;;;;;;;;;;;35.50;95.40;;;;;;5133892;28;19950;-75
2023/07/27 08:40:57;;;;;;;;;;;35.30;95.50;;;;;;5132098;28;19925;-74
2023/07/27 08:43:24;;;;;;;;;;;34.60;96.00;;;;;;5133373;27;19955;-74
2023/07/27 08:45:50;;;;;;;;;;;34.50;97.00;;;;;;5133566;27;20001;-74
2023/07/27 08:48:16;;;;;;;;;;;34.80;96.80;;;;;;5133685;27;20056;-75
2023/07/27 08:50:45;;;;;;;;;;;35.30;96.50;;;;;;5133503;27;19910;-75
2023/07/27 08:53:12;;;;;;;;;;;35.10;96.20;;;;;;5133229;27;20060;-75
2023/07/27 08:55:38;;;;;;;;;;;35.20;96.10;;;;;;5136044;27;19994;-75
2023/07/27 08:58:03;;;;;;;;;;;35.30;95.80;;;;;;5137239;27;19907;-74
2023/07/27 09:00:29;;;;;;;;;;;34.40;96.30;;;;;;5137273;27;19903;-75
2023/07/27 09:02:55;;;;;;;;;;;34.40;97.00;;;;;;5137312;27;19938;-75
2023/07/27 09:05:21;;;;;;;;;;;34.80;96.50;;;;;;5136811;27;20319;-75
2023/07/27 09:07:50;;;;;;;;;;;34.80;96.20;;;;;;5135302;27;19922;-75
2023/07/27 09:10:17;;;;;;;;;;;34.90;96.40;;;;;;5135589;27;19911;-75
2023/07/27 09:12:43;;;;;;;;;;;34.90;96.50;;;;;;5137497;27;20316;-75
2023/07/27 09:15:15;;;;;;;;;;;35.20;96.50;;;;;;5136688;27;19907;-74
2023/07/27 09:17:41;;;;;;;;;;;34.70;96.60;;;;;;5137078;27;19949;-75
2023/07/27 09:20:12;;;;;;;;;;;34.80;96.30;;;;;;5135266;27;19903;-75
2023/07/27 09:22:37;;;;;;;;;;;34.70;96.40;;;;;;5136802;27;19904;-75
2023/07/27 09:25:04;;;;;;;;;;;34.40;96.70;;;;;;5137443;27;19929;-75
2023/07/27 09:27:40;;;;;;;;;;;34.40;97.10;;;;;;5136877;27;19915;-74
2023/07/27 09:30:06;;;;;;;;;;;34.10;97.80;;;;;;5136988;27;19903;-75
2023/07/27 09:32:36;;;;;;;;;;;34.40;97.50;;;;;;5136958;27;19908;-74
2023/07/27 09:35:02;;;;;;;;;;;34.20;97.70;;;;;;5136001;27;19923;-75
2023/07/27 09:37:31;;;;;;;;;;;34.10;97.70;;;;;;5136267;27;19904;-75
2023/07/27 09:40:10;;;;;;;;;;;34.00;98.20;;;;;;5136219;27;19949;-75
2023/07/27 09:42:37;;;;;;;;;;;34.00;98.30;;;;;;5134882;27;19910;-74
2023/07/27 09:45:03;;;;;;;;;;;34.00;98.80;;;;;;5135048;27;20395;-75
2023/07/27 09:47:31;;;;;;;;;;;33.80;99.00;;;;;;5136744;27;20014;-75
2023/07/27 09:50:00;;;;;;;;;;;33.90;99.20;;;;;;5134727;27;20355;-75
2023/07/27 09:52:27;;;;;;;;;;;34.00;99.30;;;;;;5136155;27;19911;-74
2023/07/27 09:54:56;;;;;;;;;;;33.70;99.00;;;;;;5136064;27;19904;-75
2023/07/27 09:57:22;;;;;;;;;;;33.40;99.10;;;;;;5136419;27;20355;-75
2023/07/27 09:59:49;;;;;;;;;;;33.50;98.70;;;;;;5136370;27;20222;-73
2023/07/27 10:02:14;;;;;;;;;;;33.40;98.60;;;;;;5135982;27;19903;-75
2023/07/27 10:04:46;;;;;;;;;;;33.20;98.70;;;;;;5136199;27;19914;-75
2023/07/27 10:07:12;;;;;;;;;;;33.40;98.40;;;;;;5135459;27;20247;-75
2023/07/27 10:09:38;;;;;;;;;;;33.30;97.80;;;;;;5136146;27;19904;-75
2023/07/27 10:12:04;;;;;;;;;;;33.40;97.70;;;;;;5136020;27;19903;-74
2023/07/27 10:14:31;;;;;;;;;;;33.30;97.80;;;;;;5135788;27;19903;-74
2023/07/27 10:16:56;;;;;;;;;;;33.30;97.50;;;;;;5135833;27;19958;-75
2023/07/27 10:19:22;;;;;;;;;;;33.50;97.80;;;;;;5135738;27;19903;-74
2023/07/27 10:21:48;;;;;;;;;;;33.60;98.00;;;;;;5135835;27;19998;-75
2023/07/27 10:24:19;;;;;;;;;;;33.50;98.20;;;;;;5135792;27;19955;-74
2023/07/27 10:26:46;;;;;;;;;;;33.20;98.20;;;;;;5135563;27;20013;-73
2023/07/27 10:29:13;;;;;;;;;;;33.20;98.50;;;;;;5135317;27;19907;-75
2023/07/27 10:31:41;;;;;;;;;;;32.80;98.90;;;;;;5134263;27;19907;-74
2023/07/27 10:34:07;;;;;;;;;;;32.70;99.50;;;;;;5133857;27;19915;-75
2023/07/27 10:36:49;;;;;;;;;;;32.60;99.90;;;;;;5135322;27;19971;-74
2023/07/27 10:39:16;;;;;;;;;;;32.60;99.90;;;;;;5135367;27;19904;-74
2023/07/27 10:42:00;;;;;;;;;;;32.80;99.90;;;;;;5135592;27;19998;-74
2023/07/27 10:44:27;;;;;;;;;;;32.90;99.90;;;;;;5135960;27;19907;-75
2023/07/27 10:46:57;;;;;;;;;;;32.80;99.90;;;;;;5135310;27;19914;-74
2023/07/27 10:49:23;;;;;;;;;;;32.80;99.90;;;;;;5135498;27;20273;-74
2023/07/27 10:51:49;;;;;;;;;;;32.80;99.90;;;;;;5134883;27;19908;-74
2023/07/27 10:54:15;;;;;;;;;;;32.80;99.50;;;;;;5135180;27;19904;-75
2023/07/27 10:56:41;;;;;;;;;;;32.80;98.70;;;;;;5135058;27;20397;-75
2023/07/27 10:59:10;;;;;;;;;;;32.80;99.00;;;;;;5134870;27;20016;-75
2023/07/27 11:01:36;;;;;;;;;;;32.80;99.00;;;;;;5135333;27;19904;-75
2023/07/27 11:04:02;;;;;;;;;;;32.50;99.30;;;;;;5134756;27;19948;-74
2023/07/27 11:06:29;;;;;;;;;;;32.70;99.90;;;;;;5134607;27;20309;-75
2023/07/27 11:08:58;;;;;;;;;;;32.50;99.80;;;;;;5134654;27;20355;-75
2023/07/27 11:11:24;;;;;;;;;;;32.50;99.90;;;;;;5134702;27;20006;-74
2023/07/27 11:13:50;;;;;;;;;;;32.30;99.90;;;;;;5133046;27;19990;-75
2023/07/27 11:16:17;;;;;;;;;;;32.20;99.90;;;;;;5134422;27;19907;-75
2023/07/27 11:18:43;;;;;;;;;;;32.40;99.90;;;;;;5133592;27;20002;-75
2023/07/27 11:21:10;;;;;;;;;;;32.60;99.90;;;;;;5134038;27;19998;-74
2023/07/27 11:23:54;;;;;;;;;;;32.60;99.90;;;;;;5134453;27;20323;-75
2023/07/27 11:26:20;;;;;;;;;;;32.60;99.90;;;;;;5134530;27;19948;-75
2023/07/27 11:28:45;;;;;;;;;;;32.50;99.90;;;;;;5134178;27;19935;-75
2023/07/27 11:31:15;;;;;;;;;;;32.30;99.90;;;;;;5134407;27;20339;-75
2023/07/27 11:33:40;;;;;;;;;;;32.40;99.90;;;;;;5134051;27;20366;-74
2023/07/27 11:36:07;;;;;;;;;;;32.80;99.90;;;;;;5132694;27;19956;-76
2023/07/27 11:38:33;;;;;;;;;;;32.80;99.90;;;;;;5134160;27;19955;-75
2023/07/27 11:40:59;;;;;;;;;;;32.50;99.90;;;;;;5134361;27;19911;-76
2023/07/27 11:43:25;;;;;;;;;;;32.50;99.90;;;;;;5134398;27;19907;-75
2023/07/27 11:46:00;;;;;;;;;;;32.60;99.90;;;;;;5134398;27;20314;-75
2023/07/27 11:48:27;;;;;;;;;;;32.90;99.90;;;;;;5134421;27;20002;-75
2023/07/27 11:50:56;;;;;;;;;;;33.00;99.90;;;;;;5133841;27;20366;-75
2023/07/27 11:53:24;;;;;;;;;;;32.90;99.90;;;;;;5134022;27;19904;-75
2023/07/27 11:55:50;;;;;;;;;;;32.90;99.90;;;;;;5134062;27;19912;-75
2023/07/27 11:58:17;;;;;;;;;;;32.70;99.90;;;;;;5132694;27;19944;-75
2023/07/27 12:00:50;;;;;;;;;;;32.60;99.90;;;;;;5133931;27;19903;-75
2023/07/27 12:03:18;;;;;;;;;;;32.90;99.90;;;;;;5133843;27;20403;-76
2023/07/27 12:05:43;;;;;;;;;;;32.60;99.90;;;;;;5133763;27;19933;-75
2023/07/27 12:08:09;;;;;;;;;;;32.80;99.90;;;;;;5134232;27;19915;-75
2023/07/27 12:10:35;;;;;;;;;;;32.90;99.90;;;;;;5133890;27;19903;-75
2023/07/27 12:13:03;;;;;;;;;;;32.90;99.90;;;;;;5134235;27;19968;-73
2023/07/27 12:15:30;;;;;;;;;;;32.90;99.90;;;;;;5133716;27;19959;-74
2023/07/27 12:17:57;;;;;;;;;;;33.20;99.90;;;;;;5133546;27;19904;-73
2023/07/27 12:20:24;;;;;;;;;;;33.30;99.90;;;;;;5134406;27;19983;-74
2023/07/27 12:22:49;;;;;;;;;;;33.20;99.90;;;;;;5133568;27;19950;-73
2023/07/27 12:25:15;;;;;;;;;;;33.10;99.90;;;;;;5133573;27;19904;-74
2023/07/27 12:27:41;;;;;;;;;;;33.30;99.90;;;;;;5132144;28;19919;-73
2023/07/27 12:30:09;;;;;;;;;;;33.40;99.90;;;;;;5140557;27;19912;-73
2023/07/27 12:32:35;;;;;;;;;;;32.70;99.90;;;;;;5139168;27;20373;-74
2023/07/27 12:35:01;;;;;;;;;;;32.80;99.90;;;;;;5140230;27;19916;-73
2023/07/27 12:37:27;;;;;;;;;;;33.10;99.90;;;;;;5140855;27;19904;-74
2023/07/27 12:39:53;;;;;;;;;;;33.20;99.90;;;;;;5140561;27;19998;-73
2023/07/27 12:42:19;;;;;;;;;;;32.90;99.90;;;;;;5140873;27;19952;-74
2023/07/27 12:44:45;;;;;;;;;;;33.00;99.90;;;;;;5138980;27;19990;-73
2023/07/27 12:47:10;;;;;;;;;;;32.40;99.90;;;;;;5140273;27;19911;-74
2023/07/27 12:49:36;;;;;;;;;;;32.10;99.90;;;;;;5140361;27;20343;-74
2023/07/27 12:52:02;;;;;;;;;;;32.30;99.90;;;;;;5140285;27;19903;-74
2023/07/27 12:54:28;;;;;;;;;;;32.60;99.90;;;;;;5140364;27;20320;-74
2023/07/27 12:56:54;;;;;;;;;;;32.50;99.90;;;;;;5140473;27;19904;-75
2023/07/27 12:59:19;;;;;;;;;;;32.40;99.90;;;;;;5138986;27;19956;-74
2023/07/27 13:01:45;;;;;;;;;;;32.50;99.90;;;;;;5140520;27;19907;-74
2023/07/27 13:04:11;;;;;;;;;;;32.50;99.90;;;;;;5140062;27;19907;-73
2023/07/27 13:06:37;;;;;;;;;;;32.70;99.90;;;;;;5139893;27;20006;-74
2023/07/27 13:09:04;;;;;;;;;;;32.60;99.90;;;;;;5138793;27;20211;-74
2023/07/27 13:11:31;;;;;;;;;;;32.40;99.90;;;;;;5140348;27;20203;-74
2023/07/27 13:13:57;;;;;;;;;;;32.40;99.90;;;;;;5138736;27;20409;-74
2023/07/27 13:16:23;;;;;;;;;;;32.60;99.90;;;;;;5140529;27;19934;-75
2023/07/27 13:18:49;;;;;;;;;;;32.40;99.90;;;;;;5139906;27;19903;-72
2023/07/27 13:21:15;;;;;;;;;;;32.30;99.90;;;;;;5139668;27;19903;-74
2023/07/27 13:23:41;;;;;;;;;;;32.20;99.90;;;;;;5138691;27;20262;-74
2023/07/27 13:26:08;;;;;;;;;;;32.00;99.90;;;;;;5139996;27;19965;-74
2023/07/27 13:28:34;;;;;;;;;;;32.20;99.90;;;;;;5140298;27;19914;-75
2023/07/27 13:31:01;;;;;;;;;;;32.20;99.90;;;;;;5139891;27;19903;-74
2023/07/27 13:33:26;;;;;;;;;;;32.30;99.90;;;;;;5138387;27;19914;-74
2023/07/27 13:35:53;;;;;;;;;;;32.50;99.90;;;;;;5139656;27;19904;-74
2023/07/27 13:38:19;;;;;;;;;;;32.60;99.90;;;;;;5139957;27;19907;-74
2023/07/27 13:40:44;;;;;;;;;;;32.60;99.90;;;;;;5137526;27;19972;-74
2023/07/27 13:43:11;;;;;;;;;;;32.50;99.90;;;;;;5136666;27;20007;-74
2023/07/27 13:45:37;;;;;;;;;;;32.60;99.90;;;;;;5135405;27;19990;-74
2023/07/27 13:48:04;;;;;;;;;;;32.40;99.90;;;;;;5136552;27;20017;-74
2023/07/27 13:50:29;;;;;;;;;;;32.50;99.90;;;;;;5136634;27;19946;-74
2023/07/27 13:52:55;;;;;;;;;;;32.70;99.90;;;;;;5136641;27;20313;-74
2023/07/27 13:55:21;;;;;;;;;;;32.60;99.30;;;;;;5134931;27;19909;-73
2023/07/27 13:57:47;;;;;;;;;;;32.30;99.50;;;;;;5136264;27;19911;-73
2023/07/27 14:00:13;;;;;;;;;;;32.40;99.30;;;;;;5136377;27;19907;-74
2023/07/27 14:02:39;;;;;;;;;;;32.30;99.50;;;;;;5136098;27;19968;-74
2023/07/27 14:05:05;;;;;;;;;;;32.30;99.40;;;;;;5136167;27;19911;-74
2023/07/27 14:07:31;;;;;;;;;;;32.40;99.60;;;;;;5136720;27;19919;-74
2023/07/27 14:09:57;;;;;;;;;;;32.40;99.90;;;;;;5136196;27;20036;-75
2023/07/27 14:12:23;;;;;;;;;;;32.40;99.90;;;;;;5136734;27;20003;-74